Time;durP1;ratioP1;P1;durP2;ratioP2;P2;SDS_P1;SDS_P2;PMS_P1;PMS_P2;Temp;Humidity;BMP_temperature;BMP_pressure;BME280_temperature;BME280_humidity;BME280_pressure;Samples;Min_cycle;Max_cycle;Signal;HPM_P1;HPM_P2
2022/08/07 00:08:39;;;;;;;;;;;;;;;;;;21248542;28;20283;-64
2022/08/07 00:18:41;;;;;;;;;;;;;;;;;;21247919;28;19927;-60
2022/08/07 00:28:43;;;;;;;;;;;;;;;;;;21260276;27;19970;-61
2022/08/07 00:38:45;;;;;;;;;;;;;;;;;;21264152;27;20006;-65
2022/08/07 00:48:48;;;;;;;;;;;;;;;;;;21262446;27;19980;-62
2022/08/07 00:58:50;;;;;;;;;;;;;;;;;;21262007;27;19930;-61
2022/08/07 01:08:52;;;;;;;;;;;;;;;;;;21261023;27;19976;-62
2022/08/07 01:18:54;;;;;;;;;;;;;;;;;;21275317;27;19930;-58
2022/08/07 01:28:59;;;;;;;;;;;;;;;;;;21261848;27;19923;-64
2022/08/07 01:39:03;;;;;;;;;;;;;;;;;;21258230;27;20057;-64
2022/08/07 01:49:08;;;;;;;;;;;;;;;;;;21258912;27;19930;-65
2022/08/07 01:59:18;;;;;;;;;;;;;;;;;;21258142;27;20014;-64
2022/08/07 02:09:25;;;;;;;;;;;;;;;;;;21257237;27;19924;-62
2022/08/07 02:19:34;;;;;;;;;;;;;;;;;;21254622;27;19927;-64
2022/08/07 02:29:43;;;;;;;;;;;;;;;;;;21254340;27;19984;-60
2022/08/07 02:39:48;;;;;;;;;;;;;;;;;;21253487;27;19930;-66
2022/08/07 02:49:52;;;;;;;;;;;;;;;;;;21253450;27;20315;-65
2022/08/07 02:59:56;;;;;;;;;;;;;;;;;;21251748;27;19931;-57
2022/08/07 03:09:59;;;;;;;;;;;;;;;;;;21251479;27;19923;-60
2022/08/07 03:20:01;;;;;;;;;;;;;;;;;;21251642;27;20317;-64
2022/08/07 03:30:20;;;;;;;;;;;;;;;;;;21249765;27;19980;-63
2022/08/07 03:40:22;;;;;;;;;;;;;;;;;;21250508;27;20295;-57
2022/08/07 03:50:24;;;;;;;;;;;;;;;;;;21249417;27;19930;-57
2022/08/07 04:00:26;;;;;;;;;;;;;;;;;;21255249;27;20000;-55
2022/08/07 04:10:29;;;;;;;;;;;;;;;;;;21281308;27;19930;-63
2022/08/07 04:20:31;;;;;;;;;;;;;;;;;;21265662;27;20321;-65
2022/08/07 04:30:33;;;;;;;;;;;;;;;;;;21264984;27;19923;-57
2022/08/07 04:40:35;;;;;;;;;;;;;;;;;;21264468;27;20283;-66
2022/08/07 04:50:37;;;;;;;;;;;;;;;;;;21264355;27;19927;-62
2022/08/07 05:00:40;;;;;;;;;;;;;;;;;;21262850;27;20325;-62
2022/08/07 05:10:42;;;;;;;;;;;;;;;;;;21260327;27;19923;-59
2022/08/07 05:20:43;;;;;;;;;;;;;;;;;;21259984;27;19930;-65
2022/08/07 05:30:45;;;;;;;;;;;;;;;;;;21260293;27;19923;-65
2022/08/07 05:40:46;;;;;;;;;;;;;;;;;;21258602;27;19924;-59
2022/08/07 05:50:48;;;;;;;;;;;;;;;;;;21257582;27;19923;-64
2022/08/07 06:00:49;;;;;;;;;;;;;;;;;;21257078;27;19991;-61
2022/08/07 06:10:52;;;;;;;;;;;;;;;;;;21256587;27;19924;-58
2022/08/07 06:20:53;;;;;;;;;;;;;;;;;;21254359;27;20025;-62
2022/08/07 06:30:56;;;;;;;;;;;;;;;;;;21256124;27;19927;-63
2022/08/07 06:40:59;;;;;;;;;;;;;;;;;;21254803;27;19967;-57
2022/08/07 06:51:01;;;;;;;;;;;;;;;;;;21252470;27;19930;-61
2022/08/07 07:01:02;;;;;;;;;;;;;;;;;;21252599;27;19977;-64
2022/08/07 07:11:05;;;;;;;;;;;;;;;;;;21219489;27;20318;-58
2022/08/07 07:21:07;;;;;;;;;;;;;;;;;;21166468;28;19934;-62
2022/08/07 07:31:10;;;;;;;;;;;;;;;;;;21164566;28;19969;-65
2022/08/07 07:41:12;;;;;;;;;;;;;;;;;;21164363;28;19924;-62
2022/08/07 07:51:17;;;;;;;;;;;;;;;;;;21163405;28;19963;-56
2022/08/07 08:01:20;;;;;;;;;;;;;;;;;;21163488;28;20436;-66
2022/08/07 08:11:23;;;;;;;;;;;;;;;;;;21162439;28;20018;-65
2022/08/07 08:31:48;;;;;;;;;;;;;;;;;;21162173;28;19949;-64
2022/08/07 08:41:51;;;;;;;;;;;;;;;;;;21161924;28;19989;-55
2022/08/07 08:51:53;;;;;;;;;;;;;;;;;;21182242;28;19931;-56
2022/08/07 09:01:55;;;;;;;;;;;;;;;;;;21177841;28;19930;-65
2022/08/07 09:11:57;;;;;;;;;;;;;;;;;;21176107;28;20011;-64
2022/08/07 09:21:59;;;;;;;;;;;;;;;;;;21175861;28;19963;-64
2022/08/07 09:32:01;;;;;;;;;;;;;;;;;;21173818;28;20272;-60
2022/08/07 09:42:04;;;;;;;;;;;;;;;;;;21173254;28;19960;-64
2022/08/07 09:52:06;;;;;;;;;;;;;;;;;;21172256;28;19923;-65
2022/08/07 10:02:09;;;;;;;;;;;;;;;;;;21170894;28;20419;-65
2022/08/07 10:12:14;;;;;;;;;;;;;;;;;;21169570;28;20015;-63
2022/08/07 10:22:16;;;;;;;;;;;;;;;;;;21174691;28;19924;-60
2022/08/07 10:32:18;;;;;;;;;;;;;;;;;;21184103;27;19924;-57
2022/08/07 10:42:20;;;;;;;;;;;;;;;;;;21182399;27;19930;-58
2022/08/07 10:52:40;;;;;;;;;;;;;;;;;;21171837;28;19912;-58
2022/08/07 11:02:42;;;;;;;;;;;;;;;;;;21167538;28;20080;-64
2022/08/07 11:12:44;;;;;;;;;;;;;;;;;;21167281;28;20291;-58
2022/08/07 11:22:48;;;;;;;;;;;;;;;;;;21166496;28;20402;-65
2022/08/07 11:32:51;;;;;;;;;;;;;;;;;;21186721;27;19947;-58
2022/08/07 11:42:54;;;;;;;;;;;;;;;;;;21173099;28;19924;-56
2022/08/07 11:52:58;;;;;;;;;;;;;;;;;;21168462;28;20394;-64
2022/08/07 12:03:00;;;;;;;;;;;;;;;;;;21166945;28;19928;-62
2022/08/07 12:13:02;;;;;;;;;;;;;;;;;;21164471;28;19924;-66
2022/08/07 12:23:03;;;;;;;;;;;;;;;;;;21172643;28;19931;-67
2022/08/07 12:33:06;;;;;;;;;;;;;;;;;;21182223;28;19946;-60
2022/08/07 12:43:08;;;;;;;;;;;;;;;;;;21180770;28;20014;-66
2022/08/07 12:53:10;;;;;;;;;;;;;;;;;;21178689;28;19931;-58
2022/08/07 13:03:12;;;;;;;;;;;;;;;;;;21176818;28;19963;-65
2022/08/07 13:13:31;;;;;;;;;;;;;;;;;;21175748;28;19923;-67
2022/08/07 13:23:33;;;;;;;;;;;;;;;;;;21176157;28;20368;-60
2022/08/07 13:33:35;;;;;;;;;;;;;;;;;;21174408;28;20410;-66
2022/08/07 13:43:37;;;;;;;;;;;;;;;;;;21188061;27;19928;-66
2022/08/07 13:53:41;;;;;;;;;;;;;;;;;;21172478;28;20006;-67
2022/08/07 14:03:43;;;;;;;;;;;;;;;;;;21171405;28;20383;-67
2022/08/07 14:13:45;;;;;;;;;;;;;;;;;;21169860;28;20403;-64
2022/08/07 14:23:47;;;;;;;;;;;;;;;;;;21168578;28;19928;-68
2022/08/07 14:33:49;;;;;;;;;;;;;;;;;;21168316;28;19931;-67
2022/08/07 14:43:51;;;;;;;;;;;;;;;;;;21181343;27;19977;-65
2022/08/07 14:53:53;;;;;;;;;;;;;;;;;;21166023;28;20339;-63
2022/08/07 15:03:55;;;;;;;;;;;;;;;;;;21166896;28;19930;-67
2022/08/07 15:13:57;;;;;;;;;;;;;;;;;;21164940;28;20028;-57
2022/08/07 15:23:58;;;;;;;;;;;;;;;;;;21168241;28;19982;-66
2022/08/07 15:34:00;;;;;;;;;;;;;;;;;;21165706;28;19924;-57
2022/08/07 15:44:02;;;;;;;;;;;;;;;;;;21163974;28;20364;-55
2022/08/07 15:54:04;;;;;;;;;;;;;;;;;;21162847;28;19931;-66
2022/08/07 16:04:05;;;;;;;;;;;;;;;;;;21165308;28;20046;-66
2022/08/07 16:14:08;;;;;;;;;;;;;;;;;;21162946;28;20303;-63
2022/08/07 16:24:09;;;;;;;;;;;;;;;;;;21163230;28;19927;-64
2022/08/07 16:34:11;;;;;;;;;;;;;;;;;;21163797;28;19923;-66
2022/08/07 16:44:13;;;;;;;;;;;;;;;;;;21162494;28;19931;-67
2022/08/07 16:54:14;;;;;;;;;;;;;;;;;;21163059;28;19949;-67
2022/08/07 17:04:17;;;;;;;;;;;;;;;;;;21178047;28;19976;-65
2022/08/07 17:14:19;;;;;;;;;;;;;;;;;;21175427;28;19977;-65
2022/08/07 17:24:21;;;;;;;;;;;;;;;;;;21174386;28;19924;-66
2022/08/07 17:34:23;;;;;;;;;;;;;;;;;;21174872;28;19928;-65
2022/08/07 17:44:26;;;;;;;;;;;;;;;;;;21173888;28;19924;-62
2022/08/07 17:54:28;;;;;;;;;;;;;;;;;;21172200;28;19935;-67
2022/08/07 18:04:29;;;;;;;;;;;;;;;;;;21171733;28;20424;-60
2022/08/07 18:14:31;;;;;;;;;;;;;;;;;;21170886;28;19924;-67
2022/08/07 18:24:34;;;;;;;;;;;;;;;;;;21169051;28;19976;-65
2022/08/07 18:34:37;;;;;;;;;;;;;;;;;;21184091;27;19923;-61
2022/08/07 18:44:39;;;;;;;;;;;;;;;;;;21168845;28;20006;-66
2022/08/07 18:54:41;;;;;;;;;;;;;;;;;;21168001;28;19928;-67
2022/08/07 19:04:43;;;;;;;;;;;;;;;;;;21166301;28;19981;-65
2022/08/07 19:14:45;;;;;;;;;;;;;;;;;;21167409;28;19923;-64
2022/08/07 19:24:51;;;;;;;;;;;;;;;;;;21166911;28;19924;-61
2022/08/07 19:34:58;;;;;;;;;;;;;;;;;;21166916;28;19928;-55
2022/08/07 19:44:59;;;;;;;;;;;;;;;;;;21166628;28;19931;-56
2022/08/07 19:55:01;;;;;;;;;;;;;;;;;;21164505;28;19992;-61
2022/08/07 20:05:03;;;;;;;;;;;;;;;;;;21163626;28;19931;-60
2022/08/07 20:15:05;;;;;;;;;;;;;;;;;;21164225;28;19924;-62
2022/08/07 20:25:07;;;;;;;;;;;;;;;;;;21162883;28;19930;-56
2022/08/07 20:35:09;;;;;;;;;;;;;;;;;;21162241;28;19923;-59
2022/08/07 20:45:11;;;;;;;;;;;;;;;;;;21173305;28;20393;-66
2022/08/07 20:55:14;;;;;;;;;;;;;;;;;;21178795;28;19931;-59
2022/08/07 21:05:17;;;;;;;;;;;;;;;;;;21177225;28;19924;-56
2022/08/07 21:15:19;;;;;;;;;;;;;;;;;;21191079;27;20390;-61
2022/08/07 21:25:21;;;;;;;;;;;;;;;;;;21175018;28;19977;-66
2022/08/07 21:35:22;;;;;;;;;;;;;;;;;;21189734;27;19924;-58
2022/08/07 21:45:24;;;;;;;;;;;;;;;;;;21174458;28;20023;-59
2022/08/07 21:55:26;;;;;;;;;;;;;;;;;;21172811;28;19931;-59
2022/08/07 22:05:28;;;;;;;;;;;;;;;;;;21172232;28;20429;-57
2022/08/07 22:15:29;;;;;;;;;;;;;;;;;;21171207;28;20299;-57
2022/08/07 22:25:32;;;;;;;;;;;;;;;;;;21171443;28;19923;-57
2022/08/07 22:35:34;;;;;;;;;;;;;;;;;;21169422;28;19985;-66
2022/08/07 22:45:35;;;;;;;;;;;;;;;;;;21168469;28;19924;-57
2022/08/07 22:55:37;;;;;;;;;;;;;;;;;;21169220;28;19968;-61
2022/08/07 23:05:38;;;;;;;;;;;;;;;;;;21166897;28;19973;-58
2022/08/07 23:15:40;;;;;;;;;;;;;;;;;;21166803;28;20047;-57
2022/08/07 23:25:42;;;;;;;;;;;;;;;;;;21168882;28;20333;-56
2022/08/07 23:35:44;;;;;;;;;;;;;;;;;;21166006;28;20387;-60
2022/08/07 23:45:46;;;;;;;;;;;;;;;;;;21164772;28;19992;-62
2022/08/07 23:55:48;;;;;;;;;;;;;;;;;;21163997;28;20356;-66
